createdAt,value
2022-08-17T00:01:32.730Z,25.22
2022-08-17T00:04:19.055Z,25.20
2022-08-17T00:06:46.054Z,25.17
2022-08-17T00:09:18.755Z,25.15
2022-08-17T00:12:34.982Z,25.12
2022-08-17T00:14:35.050Z,25.09
2022-08-17T00:17:03.936Z,25.07
2022-08-17T00:19:32.713Z,25.05
2022-08-17T00:22:32.437Z,25.03
2022-08-17T00:28:33.304Z,24.97
2022-08-17T00:31:00.975Z,24.93
2022-08-17T00:33:31.112Z,24.92
2022-08-17T00:35:58.998Z,24.87
2022-08-17T00:38:26.854Z,24.83
2022-08-17T00:41:06.831Z,24.82
2022-08-17T00:43:40.885Z,24.79
2022-08-17T00:46:14.496Z,24.76
2022-08-17T00:48:42.315Z,24.71
2022-08-17T00:51:46.584Z,24.70
2022-08-17T00:54:18.671Z,24.67
2022-08-17T00:56:53.920Z,24.65
2022-08-17T00:59:23.165Z,24.61
2022-08-17T01:01:50.807Z,24.57
2022-08-17T01:04:20.123Z,24.53
2022-08-17T01:06:49.415Z,24.51
2022-08-17T01:09:17.846Z,24.49
2022-08-17T01:11:46.270Z,24.46
2022-08-17T01:14:13.305Z,24.45
2022-08-17T01:16:39.906Z,24.43
2022-08-17T01:19:20.242Z,24.43
2022-08-17T01:22:01.064Z,24.42
2022-08-17T01:24:27.790Z,24.40
2022-08-17T01:26:54.209Z,24.39
2022-08-17T01:29:24.802Z,24.39
2022-08-17T01:31:56.337Z,24.38
2022-08-17T01:34:25.066Z,24.37
2022-08-17T01:37:11.095Z,24.36
2022-08-17T01:39:43.577Z,24.36
2022-08-17T01:42:43.164Z,24.38
2022-08-17T01:45:15.101Z,24.38
2022-08-17T01:47:41.755Z,24.37
2022-08-17T01:50:11.745Z,24.39
2022-08-17T01:52:39.322Z,24.37
2022-08-17T01:55:07.268Z,24.38
2022-08-17T01:57:34.315Z,24.37
2022-08-17T02:00:01.207Z,24.36
2022-08-17T02:02:31.385Z,24.34
2022-08-17T02:04:58.291Z,24.34
2022-08-17T02:07:27.143Z,24.32
2022-08-17T02:09:54.037Z,24.31
2022-08-17T02:12:38.043Z,24.29
2022-08-17T02:15:09.263Z,24.28
2022-08-17T02:17:35.861Z,24.26
2022-08-17T02:20:02.297Z,24.24
2022-08-17T02:22:29.025Z,24.22
2022-08-17T02:25:00.889Z,24.21
2022-08-17T02:27:29.292Z,24.19
2022-08-17T02:29:55.778Z,24.17
2022-08-17T02:32:27.857Z,24.16
2022-08-17T02:34:56.401Z,24.13
2022-08-17T02:37:23.034Z,24.10
2022-08-17T02:39:49.542Z,24.08
2022-08-17T02:42:16.024Z,24.06
2022-08-17T02:44:42.509Z,24.04
2022-08-17T02:47:10.486Z,24.03
2022-08-17T02:49:37.392Z,24.01
2022-08-17T02:52:06.581Z,24.00
2022-08-17T02:54:39.638Z,23.99
2022-08-17T02:57:09.594Z,23.98
2022-08-17T02:59:36.117Z,23.96
2022-08-17T03:02:04.563Z,23.95
2022-08-17T03:04:31.214Z,23.93
2022-08-17T03:07:02.277Z,23.93
2022-08-17T03:09:28.922Z,23.91
2022-08-17T03:11:56.114Z,23.91
2022-08-17T03:14:26.160Z,23.89
2022-08-17T03:16:53.727Z,23.87
2022-08-17T03:19:20.900Z,23.87
2022-08-17T03:21:47.337Z,23.85
2022-08-17T03:24:21.849Z,23.82
2022-08-17T03:26:55.268Z,23.81
2022-08-17T03:29:21.788Z,23.80
2022-08-17T03:31:49.432Z,23.79
2022-08-17T03:34:17.336Z,23.77
2022-08-17T03:36:44.566Z,23.77
2022-08-17T03:39:11.047Z,23.75
2022-08-17T03:41:39.111Z,23.75
2022-08-17T03:44:05.625Z,23.73
2022-08-17T03:46:50.785Z,23.72
2022-08-17T03:49:35.736Z,23.72
2022-08-17T03:52:20.558Z,23.71
2022-08-17T03:55:22.238Z,23.70
2022-08-17T03:58:02.601Z,23.70
2022-08-17T04:00:29.133Z,23.67
2022-08-17T04:02:55.655Z,23.66
2022-08-17T04:05:22.083Z,23.64
2022-08-17T04:07:48.560Z,23.63
2022-08-17T04:10:15.117Z,23.62
2022-08-17T04:12:48.565Z,23.62
2022-08-17T04:15:15.881Z,23.61
2022-08-17T04:17:44.223Z,23.61
2022-08-17T04:20:12.835Z,23.61
2022-08-17T04:22:39.381Z,23.59
2022-08-17T04:25:13.794Z,23.60
2022-08-17T04:27:40.263Z,23.58
2022-08-17T04:30:07.445Z,23.57
2022-08-17T04:33:05.446Z,23.58
2022-08-17T04:35:38.797Z,23.57
2022-08-17T04:38:07.176Z,23.55
2022-08-17T04:40:52.743Z,23.54
2022-08-17T04:43:22.153Z,23.54
2022-08-17T04:45:56.648Z,23.54
2022-08-17T04:48:35.456Z,23.54
2022-08-17T04:51:10.074Z,23.54
2022-08-17T04:53:38.664Z,23.55
2022-08-17T04:56:05.619Z,23.57
2022-08-17T04:58:32.238Z,23.60
2022-08-17T05:00:59.015Z,23.64
2022-08-17T05:03:25.968Z,23.69
2022-08-17T05:05:52.488Z,23.71
2022-08-17T05:08:20.242Z,23.74
2022-08-17T05:10:47.489Z,23.78
2022-08-17T05:13:17.463Z,23.81
2022-08-17T05:15:47.627Z,23.86
2022-08-17T05:18:15.540Z,23.92
2022-08-17T05:20:43.620Z,23.97
2022-08-17T05:23:14.705Z,24.05
2022-08-17T05:25:47.410Z,24.13
2022-08-17T05:28:16.028Z,24.19
2022-08-17T05:30:43.936Z,24.27
2022-08-17T05:33:13.261Z,24.34
2022-08-17T05:35:44.010Z,24.41
2022-08-17T05:38:10.743Z,24.45
2022-08-17T05:40:38.298Z,24.51
2022-08-17T05:43:25.506Z,24.57
2022-08-17T05:46:16.095Z,24.65
2022-08-17T05:48:51.978Z,24.70
2022-08-17T05:51:27.248Z,24.78
2022-08-17T05:54:24.926Z,24.84
2022-08-17T05:57:28.991Z,24.91
2022-08-17T06:00:10.915Z,24.96
2022-08-17T06:02:54.285Z,25.02
2022-08-17T06:05:39.081Z,25.08
2022-08-17T06:08:23.313Z,25.16
2022-08-17T06:11:28.243Z,25.25
2022-08-17T06:14:27.734Z,25.34
2022-08-17T06:17:00.644Z,25.44
2022-08-17T06:19:51.988Z,25.55
2022-08-17T06:22:22.238Z,25.63
2022-08-17T06:24:56.741Z,25.73
2022-08-17T06:27:32.062Z,25.84
2022-08-17T06:30:13.438Z,25.98
2022-08-17T06:32:43.699Z,26.12
2022-08-17T06:35:17.655Z,26.26
2022-08-17T06:38:38.074Z,26.40
2022-08-17T06:41:20.115Z,26.57
2022-08-17T06:44:06.135Z,26.72
2022-08-17T06:46:48.653Z,26.83
2022-08-17T06:49:21.890Z,26.93
2022-08-17T06:52:07.495Z,27.07
2022-08-17T06:54:48.948Z,27.19
2022-08-17T06:57:19.568Z,27.30
2022-08-17T06:59:55.829Z,27.42
2022-08-17T07:02:51.349Z,27.55
2022-08-17T07:05:22.547Z,27.72
2022-08-17T07:08:02.857Z,27.86
2022-08-17T07:10:38.054Z,27.97
2022-08-17T07:13:51.155Z,28.12
2022-08-17T07:16:26.319Z,28.24
2022-08-17T07:18:54.779Z,28.35
2022-08-17T07:21:42.419Z,28.49
2022-08-17T07:24:29.662Z,28.62
2022-08-17T07:27:10.866Z,28.73
2022-08-17T07:29:50.492Z,28.83
2022-08-17T07:32:22.905Z,28.96
2022-08-17T07:35:37.968Z,29.09
2022-08-17T07:38:28.762Z,29.26
2022-08-17T07:41:01.844Z,29.36
2022-08-17T07:43:46.282Z,29.49
2022-08-17T07:46:53.821Z,29.60
2022-08-17T07:49:34.137Z,29.68
2022-08-17T07:52:47.682Z,29.77
2022-08-17T07:54:58.030Z,29.84
2022-08-17T07:57:36.161Z,29.92
2022-08-17T08:00:03.046Z,29.96
2022-08-17T08:02:41.329Z,30.03
2022-08-17T08:05:30.696Z,30.09
2022-08-17T08:08:26.290Z,30.17
2022-08-17T08:11:07.124Z,30.25
2022-08-17T08:13:35.333Z,30.28
2022-08-17T08:16:27.539Z,30.34
2022-08-17T08:19:00.089Z,30.39
2022-08-17T08:21:51.293Z,30.45
2022-08-17T08:24:52.196Z,30.51
2022-08-17T08:27:55.294Z,30.56
2022-08-17T08:30:22.359Z,30.59
2022-08-17T08:33:20.613Z,30.65
2022-08-17T08:35:55.315Z,30.66
2022-08-17T08:38:34.422Z,30.71
2022-08-17T08:41:05.563Z,30.73
2022-08-17T08:43:52.781Z,30.75
2022-08-17T08:46:59.938Z,30.80
2022-08-17T08:50:03.259Z,30.83
2022-08-17T08:52:48.150Z,30.89
2022-08-17T08:55:20.665Z,30.94
2022-08-17T08:57:57.071Z,30.98
2022-08-17T09:00:26.181Z,31.03
2022-08-17T09:03:08.409Z,31.09
2022-08-17T09:05:48.435Z,31.17
2022-08-17T09:08:35.394Z,31.22
2022-08-17T09:11:09.358Z,31.27
2022-08-17T09:13:54.209Z,31.33
2022-08-17T09:17:00.665Z,31.41
2022-08-17T09:19:49.054Z,31.48
2022-08-17T09:22:31.439Z,31.57
2022-08-17T09:25:17.441Z,31.68
2022-08-17T09:27:50.283Z,31.78
2022-08-17T09:30:18.284Z,31.91
2022-08-17T09:32:52.058Z,32.12
2022-08-17T09:35:32.958Z,32.30
2022-08-17T09:38:33.726Z,32.52
2022-08-17T09:41:23.758Z,32.73
2022-08-17T09:44:02.404Z,32.89
2022-08-17T09:46:43.769Z,33.04
2022-08-17T09:49:27.010Z,33.22
2022-08-17T09:52:13.779Z,33.40
2022-08-17T09:54:41.516Z,33.55
2022-08-17T09:57:29.369Z,33.72
2022-08-17T10:00:11.450Z,33.87
2022-08-17T10:03:00.441Z,34.00
2022-08-17T10:05:51.253Z,34.12
2022-08-17T10:08:29.360Z,34.18
2022-08-17T10:11:08.062Z,34.22
2022-08-17T10:13:37.949Z,34.23
2022-08-17T10:16:20.525Z,34.25
2022-08-17T10:19:03.412Z,34.28
2022-08-17T10:21:51.027Z,34.30
2022-08-17T10:25:20.975Z,34.37
2022-08-17T10:27:55.197Z,34.45
2022-08-17T10:30:24.988Z,34.49
2022-08-17T10:33:05.167Z,34.61
2022-08-17T10:35:46.815Z,34.70
2022-08-17T10:38:21.518Z,34.81
2022-08-17T10:41:06.525Z,34.94
2022-08-17T10:44:39.095Z,35.03
2022-08-17T10:46:59.532Z,35.13
2022-08-17T10:49:29.553Z,35.20
2022-08-17T10:51:59.015Z,35.23
2022-08-17T10:54:25.378Z,35.24
2022-08-17T10:56:53.998Z,35.24
2022-08-17T10:59:48.605Z,35.25
2022-08-17T11:02:19.704Z,35.23
2022-08-17T11:04:49.963Z,35.24
2022-08-17T11:07:34.936Z,35.23
2022-08-17T11:10:10.650Z,35.23
2022-08-17T11:12:45.345Z,35.23
2022-08-17T11:15:24.600Z,35.23
2022-08-17T11:17:58.142Z,35.23
2022-08-17T11:20:46.458Z,35.23
2022-08-17T11:23:34.375Z,35.24
2022-08-17T11:26:08.213Z,35.24
2022-08-17T11:28:48.759Z,35.26
2022-08-17T11:31:38.593Z,35.26
2022-08-17T11:34:18.764Z,35.28
2022-08-17T11:37:04.029Z,35.28
2022-08-17T11:39:36.816Z,35.28
2022-08-17T11:42:19.883Z,35.28
2022-08-17T11:45:32.397Z,35.27
2022-08-17T11:48:41.805Z,35.27
2022-08-17T11:51:30.334Z,35.24
2022-08-17T11:54:31.138Z,35.21
2022-08-17T11:56:52.875Z,35.15
2022-08-17T11:59:39.448Z,35.12
2022-08-17T12:02:31.761Z,35.07
2022-08-17T12:05:27.422Z,35.01
2022-08-17T12:08:05.550Z,34.92
2022-08-17T12:10:35.556Z,34.85
2022-08-17T12:13:21.738Z,34.77
2022-08-17T12:15:52.698Z,34.69
2022-08-17T12:18:25.847Z,34.61
2022-08-17T12:21:15.905Z,34.53
2022-08-17T12:24:15.927Z,34.45
2022-08-17T12:26:44.090Z,34.37
2022-08-17T12:29:18.211Z,34.31
2022-08-17T12:32:06.954Z,34.22
2022-08-17T12:34:38.282Z,34.14
2022-08-17T12:37:08.066Z,34.03
2022-08-17T12:39:34.905Z,33.93
2022-08-17T12:42:02.762Z,33.81
2022-08-17T12:44:33.663Z,33.69
2022-08-17T12:47:22.622Z,33.53
2022-08-17T12:49:52.374Z,33.36
2022-08-17T12:52:32.857Z,33.18
2022-08-17T12:55:01.959Z,32.99
2022-08-17T12:57:49.047Z,32.81
2022-08-17T13:00:21.911Z,32.65
2022-08-17T13:03:12.993Z,32.47
2022-08-17T13:06:06.230Z,32.28
2022-08-17T13:08:43.118Z,32.08
2022-08-17T13:11:20.337Z,31.90
2022-08-17T13:13:52.427Z,31.76
2022-08-17T13:16:31.907Z,31.66
2022-08-17T13:19:08.895Z,31.56
2022-08-17T13:21:37.620Z,31.47
2022-08-17T13:24:14.702Z,31.39
2022-08-17T13:26:45.882Z,31.31
2022-08-17T13:29:38.882Z,31.25
2022-08-17T13:32:07.996Z,31.18
2022-08-17T13:35:01.652Z,31.12
2022-08-17T13:37:32.986Z,31.08
2022-08-17T13:39:59.503Z,31.06
2022-08-17T13:42:50.585Z,31.08
2022-08-17T13:45:36.022Z,31.12
2022-08-17T13:48:08.906Z,31.17
2022-08-17T13:50:55.494Z,31.26
2022-08-17T13:53:53.259Z,31.36
2022-08-17T13:56:39.658Z,31.45
2022-08-17T13:59:11.256Z,31.53
2022-08-17T14:01:53.413Z,31.59
2022-08-17T14:04:27.832Z,31.65
2022-08-17T14:07:02.984Z,31.71
2022-08-17T14:09:37.471Z,31.78
2022-08-17T14:12:10.587Z,31.83
2022-08-17T14:14:38.128Z,31.87
2022-08-17T14:17:05.492Z,31.91
2022-08-17T14:19:34.766Z,31.95
2022-08-17T14:22:01.878Z,31.95
2022-08-17T14:24:44.743Z,31.95
2022-08-17T14:27:18.382Z,31.93
2022-08-17T14:29:45.070Z,31.93
2022-08-17T14:32:18.433Z,31.91
2022-08-17T14:34:46.150Z,31.90
2022-08-17T14:37:13.003Z,31.95
2022-08-17T14:39:39.784Z,32.02
2022-08-17T14:42:06.577Z,32.11
2022-08-17T14:44:33.114Z,32.21
2022-08-17T14:46:59.573Z,32.32
2022-08-17T14:49:26.242Z,32.43
2022-08-17T14:51:52.938Z,32.54
2022-08-17T14:54:32.699Z,32.63
2022-08-17T14:57:00.950Z,32.74
2022-08-17T14:59:48.879Z,32.87
2022-08-17T15:02:30.115Z,32.96
2022-08-17T15:05:05.339Z,33.11
2022-08-17T15:07:32.197Z,33.25
2022-08-17T15:10:01.515Z,33.36
2022-08-17T15:12:32.846Z,33.46
2022-08-17T15:15:01.137Z,33.55
2022-08-17T15:17:54.739Z,33.61
2022-08-17T15:20:18.420Z,33.69
2022-08-17T15:22:46.895Z,33.76
2022-08-17T15:25:14.662Z,33.86
2022-08-17T15:27:41.917Z,33.97
2022-08-17T15:30:10.039Z,34.07
2022-08-17T15:32:39.638Z,34.19
2022-08-17T15:35:08.789Z,34.28
2022-08-17T15:37:36.348Z,34.34
2022-08-17T15:40:04.171Z,34.39
2022-08-17T15:42:30.802Z,34.43
2022-08-17T15:44:57.519Z,34.45
2022-08-17T15:47:24.596Z,34.45
2022-08-17T15:49:51.086Z,34.40
2022-08-17T15:52:22.532Z,34.36
2022-08-17T15:54:57.390Z,34.31
2022-08-17T15:57:25.748Z,34.27
2022-08-17T15:59:55.265Z,34.25
2022-08-17T16:03:32.004Z,34.26
2022-08-17T16:05:24.873Z,34.29
2022-08-17T16:07:51.987Z,34.33
2022-08-17T16:10:19.501Z,34.39
2022-08-17T16:12:48.257Z,34.46
2022-08-17T16:15:15.269Z,34.52
2022-08-17T16:17:42.066Z,34.54
2022-08-17T16:20:10.427Z,34.54
2022-08-17T16:22:47.836Z,34.51
2022-08-17T16:25:19.460Z,34.48
2022-08-17T16:27:48.199Z,34.40
2022-08-17T16:30:17.543Z,34.34
2022-08-17T16:32:45.755Z,34.22
2022-08-17T16:35:16.173Z,34.11
2022-08-17T16:37:45.513Z,33.96
2022-08-17T16:40:14.322Z,33.82
2022-08-17T16:42:41.604Z,33.66
2022-08-17T16:45:10.510Z,33.54
2022-08-17T16:47:37.177Z,33.41
2022-08-17T16:50:06.399Z,33.28
2022-08-17T16:52:33.604Z,33.14
2022-08-17T16:55:02.146Z,33.03
2022-08-17T16:57:29.740Z,32.90
2022-08-17T16:59:56.881Z,32.79
2022-08-17T17:02:28.239Z,32.70
2022-08-17T17:05:11.655Z,32.54
2022-08-17T17:07:40.845Z,32.36
2022-08-17T17:10:17.730Z,32.16
2022-08-17T17:13:02.835Z,31.92
2022-08-17T17:15:43.860Z,31.69
2022-08-17T17:18:14.729Z,31.47
2022-08-17T17:20:56.650Z,31.27
2022-08-17T17:23:29.474Z,31.08
2022-08-17T17:25:55.994Z,30.91
2022-08-17T17:28:48.756Z,30.74
2022-08-17T17:31:23.749Z,30.60
2022-08-17T17:33:56.304Z,30.48
2022-08-17T17:36:28.637Z,30.36
2022-08-17T17:39:01.585Z,30.26
2022-08-17T17:41:36.815Z,30.15
2022-08-17T17:44:10.999Z,30.04
2022-08-17T17:46:42.007Z,29.95
2022-08-17T17:49:11.197Z,29.88
2022-08-17T17:52:09.327Z,29.83
2022-08-17T17:54:56.684Z,29.81
2022-08-17T17:57:42.241Z,29.84
2022-08-17T18:00:37.241Z,29.87
2022-08-17T18:03:03.882Z,29.89
2022-08-17T18:05:56.432Z,29.92
2022-08-17T18:08:37.546Z,29.92
2022-08-17T18:11:40.052Z,29.88
2022-08-17T18:14:14.840Z,29.82
2022-08-17T18:16:42.976Z,29.77
2022-08-17T18:19:21.088Z,29.71
2022-08-17T18:21:52.929Z,29.66
2022-08-17T18:24:30.992Z,29.60
2022-08-17T18:27:00.341Z,29.53
2022-08-17T18:29:47.638Z,29.46
2022-08-17T18:32:36.398Z,29.36
2022-08-17T18:35:08.682Z,29.25
2022-08-17T18:37:47.767Z,29.15
2022-08-17T18:40:17.131Z,29.06
2022-08-17T18:43:03.054Z,28.96
2022-08-17T18:45:41.797Z,28.87
2022-08-17T18:48:23.101Z,28.77
2022-08-17T18:50:51.572Z,28.67
2022-08-17T18:53:41.011Z,28.57
2022-08-17T18:56:49.452Z,28.47
2022-08-17T18:59:34.298Z,28.35
2022-08-17T19:02:20.732Z,28.24
2022-08-17T19:04:55.711Z,28.13
2022-08-17T19:07:22.324Z,27.99
2022-08-17T19:09:55.930Z,27.86
2022-08-17T19:12:55.199Z,27.71
2022-08-17T19:15:33.788Z,27.57
2022-08-17T19:18:15.761Z,27.44
2022-08-17T19:20:48.055Z,27.31
2022-08-17T19:23:29.688Z,27.20
2022-08-17T19:26:01.640Z,27.10
2022-08-17T19:28:48.532Z,27.02
2022-08-17T19:31:26.106Z,26.93
2022-08-17T19:33:54.323Z,26.86
2022-08-17T19:36:28.180Z,26.80
2022-08-17T19:39:03.849Z,26.74
2022-08-17T19:41:54.783Z,26.68
2022-08-17T19:45:15.736Z,26.63
2022-08-17T19:48:05.507Z,26.57
2022-08-17T19:50:43.446Z,26.52
2022-08-17T19:54:04.339Z,26.48
2022-08-17T19:56:47.542Z,26.44
2022-08-17T19:59:20.088Z,26.42
2022-08-17T20:02:19.605Z,26.39
2022-08-17T20:04:49.175Z,26.37
2022-08-17T20:07:19.954Z,26.35
2022-08-17T20:10:11.934Z,26.34
2022-08-17T20:12:42.610Z,26.30
2022-08-17T20:15:16.979Z,26.27
2022-08-17T20:17:46.901Z,26.20
2022-08-17T20:20:36.607Z,26.15
2022-08-17T20:23:53.159Z,26.08
2022-08-17T20:26:26.936Z,26.01
2022-08-17T20:29:29.520Z,25.94
2022-08-17T20:32:18.907Z,25.86
2022-08-17T20:34:47.706Z,25.78
2022-08-17T20:37:14.812Z,25.70
2022-08-17T20:39:50.244Z,25.65
2022-08-17T20:42:22.503Z,25.57
2022-08-17T20:44:52.866Z,25.49
2022-08-17T20:47:33.485Z,25.42
2022-08-17T20:50:05.836Z,25.32
2022-08-17T20:52:47.239Z,25.25
2022-08-17T20:55:51.534Z,25.17
2022-08-17T20:58:30.931Z,25.12
2022-08-17T21:00:57.823Z,25.06
2022-08-17T21:03:24.416Z,25.03
2022-08-17T21:06:11.138Z,24.99
2022-08-17T21:08:53.900Z,24.94
2022-08-17T21:11:59.962Z,24.89
2022-08-17T21:14:29.474Z,24.83
2022-08-17T21:17:34.019Z,24.79
2022-08-17T21:20:35.953Z,24.73
2022-08-17T21:23:34.918Z,24.68
2022-08-17T21:26:26.700Z,24.61
2022-08-17T21:29:30.230Z,24.52
2022-08-17T21:32:03.855Z,24.46
2022-08-17T21:34:36.418Z,24.40
2022-08-17T21:37:23.490Z,24.36
2022-08-17T21:39:58.080Z,24.30
2022-08-17T21:42:29.648Z,24.26
2022-08-17T21:45:00.508Z,24.23
2022-08-17T21:47:29.810Z,24.19
2022-08-17T21:50:16.072Z,24.17
2022-08-17T21:52:43.439Z,24.13
2022-08-17T21:55:21.453Z,24.12
2022-08-17T21:57:53.183Z,24.03
2022-08-17T22:00:36.819Z,23.99
2022-08-17T22:03:19.769Z,23.96
2022-08-17T22:05:48.176Z,23.89
2022-08-17T22:08:24.248Z,23.86
2022-08-17T22:10:51.908Z,23.82
2022-08-17T22:13:18.315Z,23.77
2022-08-17T22:15:49.495Z,23.73
2022-08-17T22:18:25.070Z,23.67
2022-08-17T22:20:55.906Z,23.62
2022-08-17T22:23:48.142Z,23.56
2022-08-17T22:26:18.081Z,23.50
2022-08-17T22:28:49.079Z,23.44
2022-08-17T22:31:24.329Z,23.39
2022-08-17T22:34:13.510Z,23.34
2022-08-17T22:36:42.112Z,23.30
2022-08-17T22:39:08.475Z,23.25
2022-08-17T22:41:48.155Z,23.24
2022-08-17T22:44:20.600Z,23.21
2022-08-17T22:47:01.116Z,23.20
2022-08-17T22:49:53.467Z,23.18
2022-08-17T22:52:23.715Z,23.15
2022-08-17T22:55:25.941Z,23.16
2022-08-17T22:58:13.179Z,23.13
2022-08-17T23:00:43.205Z,23.13
2022-08-17T23:03:16.628Z,23.11
2022-08-17T23:06:05.046Z,23.09
2022-08-17T23:08:35.613Z,23.07
2022-08-17T23:11:02.466Z,23.06
2022-08-17T23:13:30.097Z,23.03
2022-08-17T23:15:56.523Z,23.03
2022-08-17T23:18:23.425Z,23.00
2022-08-17T23:20:49.876Z,22.98
2022-08-17T23:23:23.427Z,22.97
2022-08-17T23:25:50.331Z,22.93
2022-08-17T23:28:16.961Z,22.91
2022-08-17T23:30:46.594Z,22.89
2022-08-17T23:33:25.603Z,22.87
2022-08-17T23:35:52.893Z,22.83
2022-08-17T23:38:19.343Z,22.78
2022-08-17T23:40:45.811Z,22.75
2022-08-17T23:43:24.742Z,22.71
2022-08-17T23:45:57.533Z,22.68
2022-08-17T23:48:36.062Z,22.64
2022-08-17T23:51:08.621Z,22.60
2022-08-17T23:53:36.701Z,22.56
2022-08-17T23:56:09.857Z,22.52
2022-08-17T23:58:38.514Z,22.49
